Time;durP1;ratioP1;P1;durP2;ratioP2;P2;SDS_P1;SDS_P2;PMS_P1;PMS_P2;Temp;Humidity;BMP_temperature;BMP_pressure;BME280_temperature;BME280_humidity;BME280_pressure;Samples;Min_cycle;Max_cycle;Signal;HPM_P1;HPM_P2
2022/11/25 00:54:15;;;;;;;6.17;3.90;;;7.30;99.90;;;;;;5054277;27;2311715;-90
2022/11/25 00:56:46;;;;;;;6.67;4.40;;;7.30;99.90;;;;;;5131941;28;20201;-89
2022/11/25 00:59:17;;;;;;;5.97;4.10;;;7.30;99.90;;;;;;5131799;28;20293;-89
2022/11/25 01:01:47;;;;;;;6.03;4.07;;;7.20;99.90;;;;;;5123304;28;20218;-89
2022/11/25 01:04:18;;;;;;;4.13;3.10;;;7.20;99.90;;;;;;5110508;28;20234;-90
2022/11/25 01:06:50;;;;;;;3.93;3.00;;;7.20;99.90;;;;;;5113990;28;20214;-89
2022/11/25 01:09:22;;;;;;;4.87;3.20;;;7.10;99.90;;;;;;5114080;28;20206;-90
2022/11/25 01:11:53;;;;;;;4.40;3.10;;;7.10;99.90;;;;;;5108372;28;20651;-90
2022/11/25 01:14:25;;;;;;;3.83;3.00;;;7.10;99.90;;;;;;5114151;28;20198;-90
2022/11/25 01:16:56;;;;;;;3.93;2.70;;;7.10;99.90;;;;;;5111405;28;20202;-90
2022/11/25 01:19:27;;;;;;;3.67;2.60;;;7.00;99.90;;;;;;5116730;28;20678;-90
2022/11/25 01:21:58;;;;;;;4.07;3.10;;;7.00;99.90;;;;;;5113736;28;20289;-93
2022/11/25 01:24:32;;;;;;;4.27;2.70;;;7.00;99.90;;;;;;5112008;28;20625;-90
2022/11/25 01:27:03;;;;;;;4.37;2.90;;;7.00;99.90;;;;;;5114097;28;20592;-90
2022/11/25 01:29:34;;;;;;;4.00;2.90;;;7.00;99.90;;;;;;5110273;28;20213;-90
2022/11/25 01:32:05;;;;;;;5.93;3.30;;;7.00;99.90;;;;;;5110389;28;20202;-90
2022/11/25 01:34:36;;;;;;;5.63;3.30;;;7.00;99.90;;;;;;5110914;28;20203;-90
2022/11/25 01:37:08;;;;;;;5.43;3.10;;;6.90;99.90;;;;;;5110356;28;20661;-90
2022/11/25 01:39:40;;;;;;;5.13;3.27;;;6.80;99.90;;;;;;5090488;28;20225;-90
2022/11/25 01:42:11;;;;;;;5.43;3.80;;;6.80;99.90;;;;;;5099925;28;20282;-90
2022/11/25 01:44:43;;;;;;;5.40;3.47;;;6.80;99.90;;;;;;5110575;28;20230;-90
2022/11/25 01:47:17;;;;;;;7.53;5.37;;;6.80;99.90;;;;;;5128631;28;20689;-89
2022/11/25 01:49:51;;;;;;;9.97;5.97;;;6.80;99.90;;;;;;5131190;28;20209;-90
2022/11/25 01:52:25;;;;;;;8.83;6.13;;;6.80;99.90;;;;;;5129917;28;20301;-86
2022/11/25 01:55:02;;;;;;;8.53;5.70;;;6.80;99.90;;;;;;5121927;28;20246;-89
2022/11/25 01:57:39;;;;;;;5.97;4.10;;;6.70;99.90;;;;;;5110874;28;20241;-89
2022/11/25 02:00:11;;;;;;;6.47;4.60;;;6.70;99.90;;;;;;5108260;28;20198;-92
2022/11/25 02:02:43;;;;;;;9.10;4.50;;;6.70;99.90;;;;;;5091496;28;20211;-91
2022/11/25 02:05:18;;;;;;;8.37;4.33;;;6.70;99.90;;;;;;5086326;28;20214;-90
2022/11/25 02:07:52;;;;;;;6.83;4.40;;;6.70;99.90;;;;;;5079839;28;20229;-93
2022/11/25 02:10:28;;;;;;;6.73;4.33;;;6.70;99.90;;;;;;5081036;28;20695;-94
2022/11/25 02:13:00;;;;;;;8.77;4.60;;;6.70;99.90;;;;;;5093279;28;20271;-94
2022/11/25 02:15:34;;;;;;;10.03;4.47;;;6.70;99.90;;;;;;5077547;28;20273;-94
2022/11/25 02:18:07;;;;;;;9.57;4.83;;;6.70;99.90;;;;;;5076164;28;20238;-94
2022/11/25 02:20:40;;;;;;;8.33;5.60;;;6.70;99.90;;;;;;5090853;28;20923;-93
2022/11/25 02:23:21;;;;;;;7.60;5.63;;;6.70;99.90;;;;;;5088246;28;20237;-94
2022/11/25 02:25:55;;;;;;;11.93;7.13;;;6.70;99.90;;;;;;5089399;28;20223;-95
2022/11/25 02:28:28;;;;;;;10.43;7.57;;;6.70;99.90;;;;;;5085781;28;20217;-94
2022/11/25 02:30:59;;;;;;;15.63;8.23;;;6.60;99.90;;;;;;5078118;28;20207;-93
2022/11/25 02:33:31;;;;;;;14.17;9.40;;;6.60;99.90;;;;;;5095681;28;20218;-93
2022/11/25 02:36:05;;;;;;;18.90;9.37;;;6.60;99.90;;;;;;5115543;28;20183;-95
2022/11/25 02:38:40;;;;;;;18.73;10.90;;;6.60;99.90;;;;;;5100462;28;20210;-96
2022/11/25 02:41:16;;;;;;;13.73;8.53;;;6.60;99.90;;;;;;5093641;28;20226;-95
2022/11/25 02:43:47;;;;;;;11.27;7.77;;;6.60;99.90;;;;;;5112099;28;20187;-92
2022/11/25 02:46:20;;;;;;;10.23;6.90;;;6.60;99.90;;;;;;5089192;28;20235;-94
2022/11/25 02:48:53;;;;;;;10.13;6.57;;;6.70;99.90;;;;;;5080959;28;20670;-95
2022/11/25 02:51:42;;;;;;;7.60;5.70;;;6.70;99.90;;;;;;5074793;28;20204;-94
2022/11/25 02:54:15;;;;;;;7.13;5.10;;;6.70;99.90;;;;;;5080296;28;20300;-94
2022/11/25 02:56:48;;;;;;;8.53;5.03;;;6.70;99.90;;;;;;5090242;28;20746;-94
2022/11/25 02:59:20;;;;;;;8.00;4.90;;;6.60;99.90;;;;;;5085564;28;20210;-95
2022/11/25 03:01:51;;;;;;;7.73;4.53;;;6.70;99.90;;;;;;5080034;28;20264;-96
2022/11/25 03:04:23;;;;;;;7.23;4.50;;;6.80;99.90;;;;;;5094005;28;20199;-96
2022/11/25 03:06:54;;;;;;;6.93;4.90;;;6.90;99.90;;;;;;5091021;28;20294;-92
2022/11/25 03:09:26;;;;;;;5.73;4.53;;;6.90;99.90;;;;;;5087593;28;20243;-91
2022/11/25 03:14:49;;;;;;;5.73;4.67;;;7.00;99.90;;;;;;5095125;28;20231;-94
2022/11/25 03:17:21;;;;;;;6.07;4.50;;;7.00;99.90;;;;;;5074093;28;20286;-94
2022/11/25 03:19:54;;;;;;;7.80;4.77;;;7.00;99.90;;;;;;5085268;28;20265;-93
2022/11/25 03:22:26;;;;;;;6.57;4.23;;;7.00;99.90;;;;;;5105874;28;20203;-96
2022/11/25 03:27:35;;;;;;;4.57;3.23;;;7.00;99.90;;;;;;5254718;22;10001799;-89
2022/11/25 03:30:11;;;;;;;3.60;3.13;;;7.00;99.90;;;;;;5018120;28;20259;-95
2022/11/25 03:32:43;;;;;;;3.47;2.80;;;7.10;99.90;;;;;;5027885;28;20214;-93
2022/11/25 03:35:15;;;;;;;3.97;3.10;;;7.10;99.90;;;;;;5013311;28;20320;-94
2022/11/25 03:37:47;;;;;;;3.83;3.10;;;7.10;99.90;;;;;;5016093;28;20206;-96
2022/11/25 03:40:20;;;;;;;4.37;3.20;;;7.10;99.90;;;;;;5026328;28;20212;-91
2022/11/25 03:42:53;;;;;;;6.00;3.20;;;7.10;99.90;;;;;;5014731;28;20210;-93
2022/11/25 03:45:25;;;;;;;4.70;3.30;;;7.10;99.90;;;;;;4991898;28;20217;-96
2022/11/25 03:47:56;;;;;;;4.60;3.67;;;7.10;99.90;;;;;;5014852;28;20296;-90
2022/11/25 03:50:28;;;;;;;7.07;4.70;;;7.10;99.90;;;;;;5016560;28;20289;-94
2022/11/25 03:52:59;;;;;;;5.00;3.80;;;7.10;99.90;;;;;;5002926;28;20205;-94
2022/11/25 03:55:31;;;;;;;5.70;3.40;;;7.10;99.90;;;;;;5019304;28;20226;-93
2022/11/25 03:58:04;;;;;;;5.00;4.00;;;7.10;99.90;;;;;;5015712;28;20304;-93
2022/11/25 04:00:36;;;;;;;5.43;3.67;;;7.10;99.90;;;;;;5014470;28;20296;-96
2022/11/25 04:03:07;;;;;;;7.40;4.00;;;7.10;99.90;;;;;;5011127;28;20297;-95
2022/11/25 04:05:38;;;;;;;5.80;3.50;;;7.10;99.90;;;;;;5018746;28;20292;-95
2022/11/25 04:08:10;;;;;;;7.43;3.77;;;7.10;99.90;;;;;;5006113;28;20213;-93
2022/11/25 04:10:42;;;;;;;4.43;3.80;;;7.10;99.90;;;;;;5010233;28;20288;-95
2022/11/25 04:13:14;;;;;;;6.93;4.10;;;7.10;99.90;;;;;;5597681;23;20212;-96
2022/11/25 04:15:48;;;;;;;6.57;3.70;;;7.10;99.90;;;;;;5058346;28;20236;-96
2022/11/25 04:18:20;;;;;;;5.30;3.40;;;7.20;99.90;;;;;;5051680;28;20214;-94
2022/11/25 04:20:52;;;;;;;4.63;3.50;;;7.20;99.90;;;;;;5052532;28;20201;-94
2022/11/25 04:23:24;;;;;;;4.43;4.03;;;7.20;99.90;;;;;;5052088;28;20211;-93
2022/11/25 04:25:55;;;;;;;4.93;3.83;;;7.30;99.90;;;;;;5048263;28;20520;-92
2022/11/25 04:28:28;;;;;;;5.63;3.87;;;7.30;99.90;;;;;;5050134;28;20290;-93
2022/11/25 04:31:00;;;;;;;5.70;4.27;;;7.40;99.90;;;;;;5049195;28;20215;-92
2022/11/25 04:33:33;;;;;;;5.77;4.20;;;7.50;99.90;;;;;;5052571;28;20272;-96
2022/11/25 04:36:04;;;;;;;5.73;4.13;;;7.40;99.90;;;;;;5060464;28;20276;-96
2022/11/25 04:38:36;;;;;;;5.53;4.60;;;7.40;99.90;;;;;;5039652;28;20236;-95
2022/11/25 04:41:07;;;;;;;4.10;3.70;;;7.40;99.90;;;;;;5056904;28;20247;-95
2022/11/25 04:43:40;;;;;;;6.23;3.97;;;7.40;99.90;;;;;;5053136;28;20200;-96
2022/11/25 04:46:15;;;;;;;5.33;3.90;;;7.40;99.90;;;;;;5055455;28;20219;-96
2022/11/25 04:51:29;;;;;;;5.70;4.00;;;7.30;99.90;;;;;;6055665;22;20187;-87
2022/11/25 04:54:00;;;;;;;4.80;3.90;;;7.30;99.90;;;;;;5477878;22;20263;-96
2022/11/25 05:01:57;;;;;;;4.53;3.67;;;7.30;99.90;;;;;;5040402;28;20285;-96
2022/11/25 05:04:29;;;;;;;4.60;3.90;;;7.30;99.90;;;;;;5035186;28;20662;-94
2022/11/25 05:07:00;;;;;;;6.20;4.53;;;7.20;99.90;;;;;;5030732;28;20224;-91
2022/11/25 05:09:32;;;;;;;5.17;4.17;;;7.30;99.90;;;;;;5011743;28;20203;-89
2022/11/25 05:12:04;;;;;;;6.93;5.00;;;7.30;99.90;;;;;;5030278;28;20200;-89
2022/11/25 05:14:37;;;;;;;7.53;5.63;;;7.20;99.90;;;;;;5024168;28;20308;-89
2022/11/25 05:17:13;;;;;;;7.93;5.00;;;7.30;99.90;;;;;;5022023;28;20212;-90
2022/11/25 05:19:44;;;;;;;7.10;5.10;;;7.20;99.90;;;;;;5026633;28;20624;-89
2022/11/25 05:22:17;;;;;;;6.33;4.93;;;7.20;99.90;;;;;;5023753;28;20595;-90
2022/11/25 05:24:49;;;;;;;6.33;5.40;;;7.20;99.90;;;;;;5014454;28;20690;-89
2022/11/25 05:27:21;;;;;;;7.87;5.90;;;7.10;99.90;;;;;;5027492;28;20280;-89
2022/11/25 05:29:54;;;;;;;9.70;5.30;;;7.10;99.90;;;;;;5030432;28;20693;-90
2022/11/25 05:32:25;;;;;;;9.80;7.00;;;7.20;99.90;;;;;;5011593;28;20288;-90
2022/11/25 05:34:57;;;;;;;9.53;7.00;;;7.10;99.90;;;;;;5030978;28;20225;-89
2022/11/25 05:37:28;;;;;;;9.07;5.97;;;7.10;99.90;;;;;;5025357;28;21133;-90
2022/11/25 05:39:59;;;;;;;8.33;6.30;;;7.10;99.90;;;;;;5025216;28;20287;-89
2022/11/25 05:42:31;;;;;;;7.97;5.60;;;7.10;99.90;;;;;;5034543;28;20215;-89
2022/11/25 05:45:04;;;;;;;7.13;5.47;;;7.20;99.90;;;;;;5026844;28;20213;-90
2022/11/25 05:47:35;;;;;;;6.87;4.83;;;7.10;99.90;;;;;;5027371;28;20236;-89
2022/11/25 05:50:09;;;;;;;7.30;5.07;;;7.20;99.90;;;;;;5034825;28;20571;-90
2022/11/25 05:52:44;;;;;;;8.80;5.00;;;7.10;99.90;;;;;;5026406;28;20214;-90
2022/11/25 05:55:16;;;;;;;4.93;3.90;;;7.10;99.90;;;;;;5032174;28;20279;-89
2022/11/25 05:57:49;;;;;;;5.53;4.30;;;7.10;99.90;;;;;;5035012;28;20308;-90
2022/11/25 06:00:23;;;;;;;5.93;3.83;;;7.10;99.90;;;;;;5034105;28;20311;-89
2022/11/25 06:02:55;;;;;;;7.23;4.87;;;7.00;99.90;;;;;;5034989;28;20206;-89
2022/11/25 06:05:27;;;;;;;8.13;4.50;;;7.00;99.90;;;;;;5035195;28;20669;-91
2022/11/25 06:07:59;;;;;;;5.87;4.67;;;7.00;99.90;;;;;;5043098;28;20232;-91
2022/11/25 06:10:30;;;;;;;7.73;4.77;;;7.00;99.90;;;;;;5058742;28;20606;-89
2022/11/25 06:13:02;;;;;;;6.90;5.03;;;7.00;99.90;;;;;;5038583;28;20673;-90
2022/11/25 06:15:36;;;;;;;6.07;5.00;;;7.00;99.90;;;;;;5036390;28;20225;-90
2022/11/25 06:18:07;;;;;;;6.20;4.70;;;7.00;99.90;;;;;;5035584;28;20241;-90
2022/11/25 06:20:38;;;;;;;4.93;4.20;;;6.90;99.90;;;;;;5036925;28;20218;-89
2022/11/25 06:23:10;;;;;;;5.80;4.27;;;6.90;99.90;;;;;;5034632;28;20297;-89
2022/11/25 06:25:41;;;;;;;6.60;4.10;;;6.80;99.90;;;;;;5035089;28;20209;-90
2022/11/25 06:28:12;;;;;;;6.70;4.23;;;6.80;99.90;;;;;;5034913;28;20209;-89
2022/11/25 06:30:45;;;;;;;5.07;3.80;;;6.70;99.90;;;;;;5033279;28;20618;-89
2022/11/25 06:33:16;;;;;;;5.57;4.00;;;6.70;99.90;;;;;;5033152;28;20205;-90
2022/11/25 06:35:47;;;;;;;5.17;3.80;;;6.60;99.90;;;;;;5026498;28;20316;-90
2022/11/25 06:38:18;;;;;;;7.67;4.33;;;6.60;99.90;;;;;;5026888;28;20240;-89
2022/11/25 06:40:51;;;;;;;5.50;4.00;;;6.60;99.90;;;;;;5027711;28;20221;-89
2022/11/25 06:43:28;;;;;;;6.37;3.73;;;6.60;99.90;;;;;;5001863;28;20813;-90
2022/11/25 06:46:06;;;;;;;5.10;3.70;;;6.60;99.90;;;;;;5009418;28;20296;-90
2022/11/25 06:48:39;;;;;;;6.27;4.10;;;6.60;99.90;;;;;;5034212;28;20216;-90
2022/11/25 06:51:12;;;;;;;4.47;3.90;;;6.60;99.90;;;;;;5034310;28;20216;-90
2022/11/25 06:53:44;;;;;;;5.30;3.70;;;6.60;99.90;;;;;;5033992;28;20636;-89
2022/11/25 06:56:17;;;;;;;4.17;3.20;;;6.60;99.90;;;;;;5024573;28;20226;-89
2022/11/25 06:58:49;;;;;;;3.83;3.20;;;6.60;99.90;;;;;;5031442;28;20295;-89
2022/11/25 07:01:25;;;;;;;2.73;2.40;;;6.70;99.90;;;;;;5048381;28;20200;-93
2022/11/25 07:04:00;;;;;;;3.70;1.90;;;6.80;99.90;;;;;;5041704;28;20202;-91
2022/11/25 07:06:34;;;;;;;4.17;2.20;;;6.80;99.90;;;;;;5051360;28;20245;-90
2022/11/25 07:09:05;;;;;;;4.13;2.53;;;6.90;99.90;;;;;;5037158;28;20292;-90
2022/11/25 07:11:38;;;;;;;4.70;2.47;;;6.90;99.90;;;;;;5034554;28;20197;-90
2022/11/25 07:14:14;;;;;;;3.50;2.37;;;6.90;99.90;;;;;;5015504;28;20234;-89
2022/11/25 07:16:47;;;;;;;3.43;2.23;;;7.00;99.90;;;;;;5031970;28;20768;-88
2022/11/25 07:19:19;;;;;;;2.50;1.80;;;7.00;99.90;;;;;;5033778;28;20205;-89
2022/11/25 07:21:51;;;;;;;2.43;1.83;;;7.00;99.90;;;;;;5041458;28;20196;-89
2022/11/25 07:24:23;;;;;;;3.43;1.43;;;7.10;99.90;;;;;;5038318;28;20218;-90
2022/11/25 07:26:54;;;;;;;2.07;1.63;;;7.30;99.90;;;;;;5019918;28;20207;-90
2022/11/25 07:29:25;;;;;;;1.63;1.40;;;7.30;99.90;;;;;;5031720;28;20239;-90
2022/11/25 07:32:18;;;;;;;2.90;1.60;;;7.30;99.90;;;;;;5026627;28;20202;-89
2022/11/25 07:34:52;;;;;;;2.27;1.60;;;7.30;99.90;;;;;;5028717;28;20201;-89
2022/11/25 07:37:23;;;;;;;2.90;1.60;;;7.30;99.90;;;;;;5028536;28;20229;-88
2022/11/25 07:39:55;;;;;;;5.07;1.53;;;7.30;99.90;;;;;;5032994;28;20228;-90
2022/11/25 07:42:27;;;;;;;2.40;1.60;;;7.20;99.90;;;;;;5033455;28;20276;-89
2022/11/25 07:44:59;;;;;;;2.57;1.73;;;7.20;99.90;;;;;;5033007;28;20252;-89
2022/11/25 07:47:34;;;;;;;1.93;1.70;;;7.10;99.90;;;;;;5043547;28;20200;-90
2022/11/25 07:50:05;;;;;;;3.40;1.80;;;7.00;99.90;;;;;;5035181;28;20208;-89
2022/11/25 07:52:40;;;;;;;4.17;1.83;;;6.90;99.90;;;;;;5034132;28;20303;-88
2022/11/25 07:55:11;;;;;;;3.53;2.00;;;6.90;99.90;;;;;;5030825;28;20236;-89
2022/11/25 07:57:43;;;;;;;2.57;1.73;;;6.80;99.90;;;;;;5025937;28;20267;-90
2022/11/25 08:00:15;;;;;;;2.33;1.90;;;6.80;99.90;;;;;;5032779;28;20292;-89
2022/11/25 08:02:49;;;;;;;2.07;1.77;;;6.70;99.90;;;;;;5030958;28;20215;-89
2022/11/25 08:05:20;;;;;;;2.23;1.77;;;6.60;99.90;;;;;;5031707;28;20196;-88
2022/11/25 08:07:53;;;;;;;2.13;1.87;;;6.50;99.90;;;;;;5011374;28;20213;-89
2022/11/25 08:10:24;;;;;;;2.97;2.00;;;6.50;99.90;;;;;;5033526;28;20653;-89
2022/11/25 08:12:55;;;;;;;2.43;1.90;;;6.50;99.90;;;;;;5017235;28;20206;-90
2022/11/25 08:15:27;;;;;;;2.73;1.73;;;6.50;99.90;;;;;;5029441;28;20241;-90
2022/11/25 08:18:00;;;;;;;2.50;2.07;;;6.50;99.90;;;;;;5027255;28;20225;-90
2022/11/25 08:20:31;;;;;;;1.90;1.60;;;6.50;99.90;;;;;;5021904;28;20241;-90
2022/11/25 08:23:02;;;;;;;2.33;1.47;;;6.60;99.90;;;;;;5027972;28;20205;-89
2022/11/25 08:25:33;;;;;;;2.40;1.40;;;6.90;99.90;;;;;;5033596;28;20299;-90
2022/11/25 08:28:04;;;;;;;2.40;1.50;;;7.40;99.90;;;;;;5031211;28;20232;-90
2022/11/25 08:30:36;;;;;;;4.40;1.77;;;7.50;99.90;;;;;;5031512;28;20216;-90
2022/11/25 08:33:09;;;;;;;2.93;1.27;;;7.50;99.90;;;;;;5029835;28;20209;-90
2022/11/25 08:35:41;;;;;;;2.23;1.43;;;7.70;99.90;;;;;;5027947;28;20362;-88
2022/11/25 08:38:13;;;;;;;1.90;1.50;;;8.00;99.90;;;;;;5031269;28;20263;-89
2022/11/25 08:40:46;;;;;;;1.63;1.40;;;8.00;99.90;;;;;;5033591;28;20208;-88
2022/11/25 08:43:17;;;;;;;2.90;1.60;;;7.90;99.90;;;;;;5034472;28;20235;-89
2022/11/25 08:45:48;;;;;;;2.13;1.40;;;7.80;99.90;;;;;;5030005;28;20256;-89
2022/11/25 08:48:22;;;;;;;2.07;1.43;;;7.80;99.90;;;;;;5034973;28;20236;-89
2022/11/25 08:50:55;;;;;;;1.50;1.27;;;7.80;99.90;;;;;;5036866;28;21231;-89
